sensor_id;sensor_type;location;lat;lon;timestamp;temperature;humidity
12700;DHT22;6414;49.570;6.060;2022-07-17T00:00:03;16.20;52.20
12700;DHT22;6414;49.570;6.060;2022-07-17T00:02:48;16.20;44.00
12700;DHT22;6414;49.570;6.060;2022-07-17T00:05:34;16.10;45.50
12700;DHT22;6414;49.570;6.060;2022-07-17T00:08:19;16.10;44.10
12700;DHT22;6414;49.570;6.060;2022-07-17T00:11:05;16.10;60.50
12700;DHT22;6414;49.570;6.060;2022-07-17T00:13:51;16.10;59.20
12700;DHT22;6414;49.570;6.060;2022-07-17T00:16:36;16.10;78.70
12700;DHT22;6414;49.570;6.060;2022-07-17T00:19:22;16.10;1.00
12700;DHT22;6414;49.570;6.060;2022-07-17T00:22:07;16.10;1.00
12700;DHT22;6414;49.570;6.060;2022-07-17T00:24:52;16.10;1.00
12700;DHT22;6414;49.570;6.060;2022-07-17T00:27:38;16.00;1.00
12700;DHT22;6414;49.570;6.060;2022-07-17T00:30:23;16.00;1.00
12700;DHT22;6414;49.570;6.060;2022-07-17T00:33:09;15.80;99.90
12700;DHT22;6414;49.570;6.060;2022-07-17T00:35:54;15.70;99.90
12700;DHT22;6414;49.570;6.060;2022-07-17T00:38:40;15.60;1.00
12700;DHT22;6414;49.570;6.060;2022-07-17T00:41:26;15.60;1.00
12700;DHT22;6414;49.570;6.060;2022-07-17T00:44:11;15.50;1.00
12700;DHT22;6414;49.570;6.060;2022-07-17T00:46:56;15.40;1.00
12700;DHT22;6414;49.570;6.060;2022-07-17T00:49:42;15.30;99.90
12700;DHT22;6414;49.570;6.060;2022-07-17T00:52:27;15.40;99.90
12700;DHT22;6414;49.570;6.060;2022-07-17T00:55:12;15.30;99.90
12700;DHT22;6414;49.570;6.060;2022-07-17T00:58:00;15.30;1.00
12700;DHT22;6414;49.570;6.060;2022-07-17T01:00:44;15.30;1.00
12700;DHT22;6414;49.570;6.060;2022-07-17T01:03:29;15.40;1.00
12700;DHT22;6414;49.570;6.060;2022-07-17T01:06:16;15.40;1.00
12700;DHT22;6414;49.570;6.060;2022-07-17T01:09:02;15.40;1.00
12700;DHT22;6414;49.570;6.060;2022-07-17T01:11:47;15.20;99.90
12700;DHT22;6414;49.570;6.060;2022-07-17T01:14:33;15.20;1.00
12700;DHT22;6414;49.570;6.060;2022-07-17T01:17:18;15.20;1.00
12700;DHT22;6414;49.570;6.060;2022-07-17T01:20:08;15.00;99.90
12700;DHT22;6414;49.570;6.060;2022-07-17T01:22:53;15.00;99.90
12700;DHT22;6414;49.570;6.060;2022-07-17T01:25:38;14.90;1.00
12700;DHT22;6414;49.570;6.060;2022-07-17T01:28:24;14.80;1.00
12700;DHT22;6414;49.570;6.060;2022-07-17T01:31:09;14.80;99.90
12700;DHT22;6414;49.570;6.060;2022-07-17T01:33:54;14.90;99.90
12700;DHT22;6414;49.570;6.060;2022-07-17T01:36:40;14.80;99.90
12700;DHT22;6414;49.570;6.060;2022-07-17T01:39:25;14.80;99.90
12700;DHT22;6414;49.570;6.060;2022-07-17T01:42:29;14.70;1.00
12700;DHT22;6414;49.570;6.060;2022-07-17T01:45:16;14.40;1.00
12700;DHT22;6414;49.570;6.060;2022-07-17T01:48:00;14.40;1.00
12700;DHT22;6414;49.570;6.060;2022-07-17T01:50:45;14.40;1.00
12700;DHT22;6414;49.570;6.060;2022-07-17T01:53:32;14.70;99.90
12700;DHT22;6414;49.570;6.060;2022-07-17T01:56:17;14.60;99.90
12700;DHT22;6414;49.570;6.060;2022-07-17T01:59:03;14.70;16.40
12700;DHT22;6414;49.570;6.060;2022-07-17T02:01:48;14.60;99.90
12700;DHT22;6414;49.570;6.060;2022-07-17T02:04:33;14.60;99.90
12700;DHT22;6414;49.570;6.060;2022-07-17T02:07:18;14.60;99.90
12700;DHT22;6414;49.570;6.060;2022-07-17T02:10:04;14.40;99.90
12700;DHT22;6414;49.570;6.060;2022-07-17T02:12:49;14.30;1.00
12700;DHT22;6414;49.570;6.060;2022-07-17T02:15:34;14.40;99.90
12700;DHT22;6414;49.570;6.060;2022-07-17T02:18:20;14.40;1.00
12700;DHT22;6414;49.570;6.060;2022-07-17T02:21:05;14.50;1.00
12700;DHT22;6414;49.570;6.060;2022-07-17T02:23:51;14.50;1.00
12700;DHT22;6414;49.570;6.060;2022-07-17T02:26:37;14.40;99.90
12700;DHT22;6414;49.570;6.060;2022-07-17T02:29:23;14.30;99.90
12700;DHT22;6414;49.570;6.060;2022-07-17T02:32:08;14.30;99.90
12700;DHT22;6414;49.570;6.060;2022-07-17T02:34:53;14.20;99.90
12700;DHT22;6414;49.570;6.060;2022-07-17T02:37:39;14.10;1.00
12700;DHT22;6414;49.570;6.060;2022-07-17T02:40:27;13.60;1.00
12700;DHT22;6414;49.570;6.060;2022-07-17T02:43:13;13.40;1.00
12700;DHT22;6414;49.570;6.060;2022-07-17T02:45:58;13.20;10.60
12700;DHT22;6414;49.570;6.060;2022-07-17T02:48:44;12.90;94.00
12700;DHT22;6414;49.570;6.060;2022-07-17T02:51:30;12.50;99.90
12700;DHT22;6414;49.570;6.060;2022-07-17T02:54:16;12.20;99.90
12700;DHT22;6414;49.570;6.060;2022-07-17T02:57:01;12.20;99.90
12700;DHT22;6414;49.570;6.060;2022-07-17T02:59:46;12.30;99.90
12700;DHT22;6414;49.570;6.060;2022-07-17T03:02:32;12.40;99.90
12700;DHT22;6414;49.570;6.060;2022-07-17T03:05:18;12.40;99.90
12700;DHT22;6414;49.570;6.060;2022-07-17T03:08:04;12.30;99.90
12700;DHT22;6414;49.570;6.060;2022-07-17T03:10:49;12.20;99.90
12700;DHT22;6414;49.570;6.060;2022-07-17T03:13:34;12.00;99.90
12700;DHT22;6414;49.570;6.060;2022-07-17T03:16:19;12.00;99.90
12700;DHT22;6414;49.570;6.060;2022-07-17T03:19:05;11.80;99.90
12700;DHT22;6414;49.570;6.060;2022-07-17T03:21:50;11.80;99.90
12700;DHT22;6414;49.570;6.060;2022-07-17T03:24:35;11.80;99.90
12700;DHT22;6414;49.570;6.060;2022-07-17T03:27:21;11.60;99.90
12700;DHT22;6414;49.570;6.060;2022-07-17T03:30:06;11.70;99.90
12700;DHT22;6414;49.570;6.060;2022-07-17T03:32:52;11.60;99.90
12700;DHT22;6414;49.570;6.060;2022-07-17T03:35:37;11.70;99.90
12700;DHT22;6414;49.570;6.060;2022-07-17T03:38:23;12.10;99.90
12700;DHT22;6414;49.570;6.060;2022-07-17T03:41:09;12.00;99.90
12700;DHT22;6414;49.570;6.060;2022-07-17T03:43:54;11.90;99.90
12700;DHT22;6414;49.570;6.060;2022-07-17T03:46:40;11.80;99.90
12700;DHT22;6414;49.570;6.060;2022-07-17T03:49:25;11.60;99.90
12700;DHT22;6414;49.570;6.060;2022-07-17T03:52:11;11.60;99.90
12700;DHT22;6414;49.570;6.060;2022-07-17T03:54:56;11.70;99.90
12700;DHT22;6414;49.570;6.060;2022-07-17T03:57:41;11.70;99.90
12700;DHT22;6414;49.570;6.060;2022-07-17T04:00:27;11.60;99.90
12700;DHT22;6414;49.570;6.060;2022-07-17T04:03:12;11.50;99.90
12700;DHT22;6414;49.570;6.060;2022-07-17T04:05:58;11.70;99.90
12700;DHT22;6414;49.570;6.060;2022-07-17T04:08:43;11.60;99.90
12700;DHT22;6414;49.570;6.060;2022-07-17T04:11:28;11.70;99.90
12700;DHT22;6414;49.570;6.060;2022-07-17T04:14:15;11.70;99.90
12700;DHT22;6414;49.570;6.060;2022-07-17T04:17:00;11.70;99.90
12700;DHT22;6414;49.570;6.060;2022-07-17T04:19:46;11.90;99.90
12700;DHT22;6414;49.570;6.060;2022-07-17T04:22:31;11.90;99.90
12700;DHT22;6414;49.570;6.060;2022-07-17T04:25:17;12.00;99.90
12700;DHT22;6414;49.570;6.060;2022-07-17T04:28:03;12.00;99.90
12700;DHT22;6414;49.570;6.060;2022-07-17T04:30:48;12.10;99.90
12700;DHT22;6414;49.570;6.060;2022-07-17T04:33:33;12.00;99.90
12700;DHT22;6414;49.570;6.060;2022-07-17T04:36:19;11.80;99.90
12700;DHT22;6414;49.570;6.060;2022-07-17T04:39:04;11.90;99.90
12700;DHT22;6414;49.570;6.060;2022-07-17T04:41:49;12.20;99.90
12700;DHT22;6414;49.570;6.060;2022-07-17T04:44:34;12.30;99.90
12700;DHT22;6414;49.570;6.060;2022-07-17T04:47:20;12.40;99.90
12700;DHT22;6414;49.570;6.060;2022-07-17T04:50:06;12.10;99.90
12700;DHT22;6414;49.570;6.060;2022-07-17T04:52:51;12.10;99.90
12700;DHT22;6414;49.570;6.060;2022-07-17T04:55:37;12.10;99.90
12700;DHT22;6414;49.570;6.060;2022-07-17T04:58:22;12.10;99.90
12700;DHT22;6414;49.570;6.060;2022-07-17T05:01:08;12.20;99.90
12700;DHT22;6414;49.570;6.060;2022-07-17T05:03:53;12.20;99.90
12700;DHT22;6414;49.570;6.060;2022-07-17T05:06:39;12.70;99.90
12700;DHT22;6414;49.570;6.060;2022-07-17T05:09:26;12.70;99.90
12700;DHT22;6414;49.570;6.060;2022-07-17T05:12:11;12.70;99.90
12700;DHT22;6414;49.570;6.060;2022-07-17T05:14:56;12.80;99.90
12700;DHT22;6414;49.570;6.060;2022-07-17T05:17:42;12.90;99.90
12700;DHT22;6414;49.570;6.060;2022-07-17T05:20:27;12.80;99.90
12700;DHT22;6414;49.570;6.060;2022-07-17T05:23:13;12.80;99.90
12700;DHT22;6414;49.570;6.060;2022-07-17T05:25:58;12.80;99.90
12700;DHT22;6414;49.570;6.060;2022-07-17T05:28:43;12.90;99.90
12700;DHT22;6414;49.570;6.060;2022-07-17T05:31:28;13.20;99.90
12700;DHT22;6414;49.570;6.060;2022-07-17T05:34:14;13.30;99.90
12700;DHT22;6414;49.570;6.060;2022-07-17T05:37:00;13.40;99.90
12700;DHT22;6414;49.570;6.060;2022-07-17T05:39:45;13.60;99.90
12700;DHT22;6414;49.570;6.060;2022-07-17T05:42:30;13.70;99.90
12700;DHT22;6414;49.570;6.060;2022-07-17T05:45:16;13.70;99.90
12700;DHT22;6414;49.570;6.060;2022-07-17T05:48:02;13.90;99.90
12700;DHT22;6414;49.570;6.060;2022-07-17T05:50:47;14.10;99.90
12700;DHT22;6414;49.570;6.060;2022-07-17T05:53:33;14.20;99.90
12700;DHT22;6414;49.570;6.060;2022-07-17T05:56:18;14.40;99.90
12700;DHT22;6414;49.570;6.060;2022-07-17T05:59:03;14.50;99.90
12700;DHT22;6414;49.570;6.060;2022-07-17T06:01:48;14.50;96.60
12700;DHT22;6414;49.570;6.060;2022-07-17T06:04:34;14.70;99.90
12700;DHT22;6414;49.570;6.060;2022-07-17T06:07:20;14.70;99.90
12700;DHT22;6414;49.570;6.060;2022-07-17T06:10:05;14.90;85.30
12700;DHT22;6414;49.570;6.060;2022-07-17T06:12:51;15.00;73.30
12700;DHT22;6414;49.570;6.060;2022-07-17T06:15:36;15.20;56.40
12700;DHT22;6414;49.570;6.060;2022-07-17T06:18:22;15.30;28.00
12700;DHT22;6414;49.570;6.060;2022-07-17T06:21:07;15.30;24.20
12700;DHT22;6414;49.570;6.060;2022-07-17T06:23:52;15.30;29.80
12700;DHT22;6414;49.570;6.060;2022-07-17T06:26:38;15.40;11.30
12700;DHT22;6414;49.570;6.060;2022-07-17T06:29:25;15.70;28.80
12700;DHT22;6414;49.570;6.060;2022-07-17T06:32:11;15.70;1.60
12700;DHT22;6414;49.570;6.060;2022-07-17T06:34:56;15.70;1.00
12700;DHT22;6414;49.570;6.060;2022-07-17T06:37:41;15.90;1.00
12700;DHT22;6414;49.570;6.060;2022-07-17T06:40:27;16.30;1.00
12700;DHT22;6414;49.570;6.060;2022-07-17T06:43:13;16.50;1.00
12700;DHT22;6414;49.570;6.060;2022-07-17T06:45:59;16.50;1.00
12700;DHT22;6414;49.570;6.060;2022-07-17T06:48:45;16.50;1.00
12700;DHT22;6414;49.570;6.060;2022-07-17T06:51:30;16.80;1.00
12700;DHT22;6414;49.570;6.060;2022-07-17T06:54:16;16.80;1.00
12700;DHT22;6414;49.570;6.060;2022-07-17T06:57:01;17.00;1.00
12700;DHT22;6414;49.570;6.060;2022-07-17T06:59:46;17.10;1.00
12700;DHT22;6414;49.570;6.060;2022-07-17T07:02:32;17.30;99.90
12700;DHT22;6414;49.570;6.060;2022-07-17T07:05:17;17.40;1.00
12700;DHT22;6414;49.570;6.060;2022-07-17T07:08:02;17.50;99.90
12700;DHT22;6414;49.570;6.060;2022-07-17T07:10:48;17.50;99.90
12700;DHT22;6414;49.570;6.060;2022-07-17T07:13:33;17.50;1.00
12700;DHT22;6414;49.570;6.060;2022-07-17T07:16:18;17.70;1.00
12700;DHT22;6414;49.570;6.060;2022-07-17T07:19:04;17.80;1.00
12700;DHT22;6414;49.570;6.060;2022-07-17T07:21:49;18.20;99.90
12700;DHT22;6414;49.570;6.060;2022-07-17T07:24:34;18.30;99.90
12700;DHT22;6414;49.570;6.060;2022-07-17T07:27:19;18.50;99.90
12700;DHT22;6414;49.570;6.060;2022-07-17T07:30:05;18.60;99.90
12700;DHT22;6414;49.570;6.060;2022-07-17T07:32:51;18.90;1.00
12700;DHT22;6414;49.570;6.060;2022-07-17T07:35:37;18.90;1.00
12700;DHT22;6414;49.570;6.060;2022-07-17T07:38:22;19.10;1.00
12700;DHT22;6414;49.570;6.060;2022-07-17T07:41:07;19.30;1.00
12700;DHT22;6414;49.570;6.060;2022-07-17T07:43:52;19.40;1.00
12700;DHT22;6414;49.570;6.060;2022-07-17T07:46:37;19.70;1.00
12700;DHT22;6414;49.570;6.060;2022-07-17T07:49:23;19.70;1.00
12700;DHT22;6414;49.570;6.060;2022-07-17T07:52:08;19.60;1.00
12700;DHT22;6414;49.570;6.060;2022-07-17T07:54:54;19.60;1.00
12700;DHT22;6414;49.570;6.060;2022-07-17T07:57:39;19.80;1.00
12700;DHT22;6414;49.570;6.060;2022-07-17T08:00:24;19.90;1.00
12700;DHT22;6414;49.570;6.060;2022-07-17T08:03:10;20.10;1.00
12700;DHT22;6414;49.570;6.060;2022-07-17T08:05:55;20.10;1.00
12700;DHT22;6414;49.570;6.060;2022-07-17T08:08:42;20.50;1.00
12700;DHT22;6414;49.570;6.060;2022-07-17T08:11:28;20.70;1.00
12700;DHT22;6414;49.570;6.060;2022-07-17T08:14:14;20.60;1.00
12700;DHT22;6414;49.570;6.060;2022-07-17T08:16:59;20.80;1.00
12700;DHT22;6414;49.570;6.060;2022-07-17T08:19:45;20.70;1.00
12700;DHT22;6414;49.570;6.060;2022-07-17T08:22:31;20.70;1.00
12700;DHT22;6414;49.570;6.060;2022-07-17T08:25:16;20.90;1.00
12700;DHT22;6414;49.570;6.060;2022-07-17T08:28:02;21.10;1.00
12700;DHT22;6414;49.570;6.060;2022-07-17T08:30:47;21.10;1.00
12700;DHT22;6414;49.570;6.060;2022-07-17T08:33:32;20.80;1.00
12700;DHT22;6414;49.570;6.060;2022-07-17T08:36:18;21.10;1.00
12700;DHT22;6414;49.570;6.060;2022-07-17T08:39:03;21.30;1.00
12700;DHT22;6414;49.570;6.060;2022-07-17T08:41:49;21.50;1.00
12700;DHT22;6414;49.570;6.060;2022-07-17T08:44:34;21.60;1.00
12700;DHT22;6414;49.570;6.060;2022-07-17T08:47:19;21.60;1.00
12700;DHT22;6414;49.570;6.060;2022-07-17T08:50:05;21.90;1.00
12700;DHT22;6414;49.570;6.060;2022-07-17T08:52:51;21.90;1.00
12700;DHT22;6414;49.570;6.060;2022-07-17T08:55:37;21.90;1.00
12700;DHT22;6414;49.570;6.060;2022-07-17T08:58:22;21.90;1.00
12700;DHT22;6414;49.570;6.060;2022-07-17T09:01:11;22.10;1.00
12700;DHT22;6414;49.570;6.060;2022-07-17T09:03:58;21.90;1.00
12700;DHT22;6414;49.570;6.060;2022-07-17T09:06:42;22.30;1.00
12700;DHT22;6414;49.570;6.060;2022-07-17T09:09:27;22.60;1.00
12700;DHT22;6414;49.570;6.060;2022-07-17T09:12:13;23.00;1.00
12700;DHT22;6414;49.570;6.060;2022-07-17T09:14:59;22.90;1.00
12700;DHT22;6414;49.570;6.060;2022-07-17T09:17:51;22.90;1.00
12700;DHT22;6414;49.570;6.060;2022-07-17T09:20:38;22.30;1.00
12700;DHT22;6414;49.570;6.060;2022-07-17T09:23:22;22.70;1.00
12700;DHT22;6414;49.570;6.060;2022-07-17T09:26:06;23.10;1.00
12700;DHT22;6414;49.570;6.060;2022-07-17T09:28:53;23.30;1.00
12700;DHT22;6414;49.570;6.060;2022-07-17T09:31:38;23.30;1.00
12700;DHT22;6414;49.570;6.060;2022-07-17T09:34:24;23.30;1.00
12700;DHT22;6414;49.570;6.060;2022-07-17T09:37:09;23.20;1.00
12700;DHT22;6414;49.570;6.060;2022-07-17T09:39:54;23.50;1.00
12700;DHT22;6414;49.570;6.060;2022-07-17T09:42:40;23.80;1.00
12700;DHT22;6414;49.570;6.060;2022-07-17T09:45:25;24.00;1.00
12700;DHT22;6414;49.570;6.060;2022-07-17T09:48:10;24.40;1.00
12700;DHT22;6414;49.570;6.060;2022-07-17T09:50:55;24.90;1.00
12700;DHT22;6414;49.570;6.060;2022-07-17T09:53:41;24.60;1.00
12700;DHT22;6414;49.570;6.060;2022-07-17T09:56:27;24.90;1.00
12700;DHT22;6414;49.570;6.060;2022-07-17T09:59:12;24.30;1.00
12700;DHT22;6414;49.570;6.060;2022-07-17T10:01:57;24.20;1.00
12700;DHT22;6414;49.570;6.060;2022-07-17T10:04:43;24.80;1.00
12700;DHT22;6414;49.570;6.060;2022-07-17T10:07:29;25.10;1.00
12700;DHT22;6414;49.570;6.060;2022-07-17T10:10:16;25.10;1.00
12700;DHT22;6414;49.570;6.060;2022-07-17T10:13:00;25.20;1.00
12700;DHT22;6414;49.570;6.060;2022-07-17T10:15:45;25.20;1.00
12700;DHT22;6414;49.570;6.060;2022-07-17T10:18:40;25.20;1.00
12700;DHT22;6414;49.570;6.060;2022-07-17T10:21:25;24.70;1.00
12700;DHT22;6414;49.570;6.060;2022-07-17T10:24:10;25.20;1.00
12700;DHT22;6414;49.570;6.060;2022-07-17T10:26:56;25.60;1.00
12700;DHT22;6414;49.570;6.060;2022-07-17T10:29:41;25.40;1.00
12700;DHT22;6414;49.570;6.060;2022-07-17T10:32:27;25.40;1.00
12700;DHT22;6414;49.570;6.060;2022-07-17T10:35:12;25.30;1.00
12700;DHT22;6414;49.570;6.060;2022-07-17T10:38:08;25.40;1.00
12700;DHT22;6414;49.570;6.060;2022-07-17T10:40:43;25.80;1.00
12700;DHT22;6414;49.570;6.060;2022-07-17T10:43:50;25.90;1.00
12700;DHT22;6414;49.570;6.060;2022-07-17T10:46:14;26.20;1.00
12700;DHT22;6414;49.570;6.060;2022-07-17T10:48:59;25.50;1.00
12700;DHT22;6414;49.570;6.060;2022-07-17T10:51:45;25.70;1.00
12700;DHT22;6414;49.570;6.060;2022-07-17T10:54:33;25.60;1.00
12700;DHT22;6414;49.570;6.060;2022-07-17T10:57:18;25.40;1.00
12700;DHT22;6414;49.570;6.060;2022-07-17T11:00:03;25.40;1.00
12700;DHT22;6414;49.570;6.060;2022-07-17T11:02:48;25.20;1.00
12700;DHT22;6414;49.570;6.060;2022-07-17T11:05:34;25.20;1.00
12700;DHT22;6414;49.570;6.060;2022-07-17T11:08:19;25.10;1.00
12700;DHT22;6414;49.570;6.060;2022-07-17T11:11:04;25.40;1.00
12700;DHT22;6414;49.570;6.060;2022-07-17T11:13:50;25.40;1.00
12700;DHT22;6414;49.570;6.060;2022-07-17T11:16:35;25.50;1.00
12700;DHT22;6414;49.570;6.060;2022-07-17T11:19:28;25.20;1.00
12700;DHT22;6414;49.570;6.060;2022-07-17T11:22:12;25.40;1.00
12700;DHT22;6414;49.570;6.060;2022-07-17T11:24:58;25.40;1.00
12700;DHT22;6414;49.570;6.060;2022-07-17T11:27:43;25.30;1.00
12700;DHT22;6414;49.570;6.060;2022-07-17T11:30:29;25.30;1.00
12700;DHT22;6414;49.570;6.060;2022-07-17T11:33:17;25.30;1.00
12700;DHT22;6414;49.570;6.060;2022-07-17T11:36:02;25.20;1.00
12700;DHT22;6414;49.570;6.060;2022-07-17T11:38:48;25.40;1.00
12700;DHT22;6414;49.570;6.060;2022-07-17T11:41:37;25.50;1.00
12700;DHT22;6414;49.570;6.060;2022-07-17T11:44:20;25.10;1.00
12700;DHT22;6414;49.570;6.060;2022-07-17T11:47:04;25.10;1.00
12700;DHT22;6414;49.570;6.060;2022-07-17T11:49:49;25.60;1.00
12700;DHT22;6414;49.570;6.060;2022-07-17T11:52:42;25.70;1.00
12700;DHT22;6414;49.570;6.060;2022-07-17T11:55:34;25.80;1.00
12700;DHT22;6414;49.570;6.060;2022-07-17T11:58:11;25.50;1.00
12700;DHT22;6414;49.570;6.060;2022-07-17T12:01:02;25.50;1.00
12700;DHT22;6414;49.570;6.060;2022-07-17T12:03:55;25.70;1.00
12700;DHT22;6414;49.570;6.060;2022-07-17T12:06:31;25.70;1.00
12700;DHT22;6414;49.570;6.060;2022-07-17T12:09:16;25.70;1.00
12700;DHT22;6414;49.570;6.060;2022-07-17T12:12:02;25.60;1.00
12700;DHT22;6414;49.570;6.060;2022-07-17T12:14:54;25.50;1.00
12700;DHT22;6414;49.570;6.060;2022-07-17T12:17:39;25.90;1.00
12700;DHT22;6414;49.570;6.060;2022-07-17T12:20:25;25.70;1.00
12700;DHT22;6414;49.570;6.060;2022-07-17T12:23:30;26.40;1.00
12700;DHT22;6414;49.570;6.060;2022-07-17T12:26:16;26.30;1.00
12700;DHT22;6414;49.570;6.060;2022-07-17T12:29:01;26.30;1.00
12700;DHT22;6414;49.570;6.060;2022-07-17T12:31:47;25.70;1.00
12700;DHT22;6414;49.570;6.060;2022-07-17T12:34:33;25.70;1.00
12700;DHT22;6414;49.570;6.060;2022-07-17T12:37:19;25.90;1.00
12700;DHT22;6414;49.570;6.060;2022-07-17T12:40:03;25.70;1.00
12700;DHT22;6414;49.570;6.060;2022-07-17T12:42:48;26.00;1.00
12700;DHT22;6414;49.570;6.060;2022-07-17T12:45:35;26.50;1.00
12700;DHT22;6414;49.570;6.060;2022-07-17T12:48:20;26.20;1.00
12700;DHT22;6414;49.570;6.060;2022-07-17T12:51:06;26.20;1.00
12700;DHT22;6414;49.570;6.060;2022-07-17T12:53:51;26.10;1.00
12700;DHT22;6414;49.570;6.060;2022-07-17T12:56:36;26.10;1.00
12700;DHT22;6414;49.570;6.060;2022-07-17T12:59:22;26.30;1.00
12700;DHT22;6414;49.570;6.060;2022-07-17T13:02:08;26.40;1.00
12700;DHT22;6414;49.570;6.060;2022-07-17T13:04:53;26.60;1.00
12700;DHT22;6414;49.570;6.060;2022-07-17T13:07:38;26.50;1.00
12700;DHT22;6414;49.570;6.060;2022-07-17T13:10:23;26.50;1.00
12700;DHT22;6414;49.570;6.060;2022-07-17T13:13:09;26.40;1.00
12700;DHT22;6414;49.570;6.060;2022-07-17T13:15:55;26.40;1.00
12700;DHT22;6414;49.570;6.060;2022-07-17T13:18:40;26.30;1.00
12700;DHT22;6414;49.570;6.060;2022-07-17T13:21:25;26.70;1.00
12700;DHT22;6414;49.570;6.060;2022-07-17T13:24:11;26.80;1.00
12700;DHT22;6414;49.570;6.060;2022-07-17T13:26:56;26.90;1.00
12700;DHT22;6414;49.570;6.060;2022-07-17T13:29:41;26.60;1.00
12700;DHT22;6414;49.570;6.060;2022-07-17T13:32:27;26.50;1.00
12700;DHT22;6414;49.570;6.060;2022-07-17T13:35:12;26.80;1.00
12700;DHT22;6414;49.570;6.060;2022-07-17T13:37:57;26.70;1.00
12700;DHT22;6414;49.570;6.060;2022-07-17T13:40:42;26.80;1.00
12700;DHT22;6414;49.570;6.060;2022-07-17T13:43:28;26.40;1.00
12700;DHT22;6414;49.570;6.060;2022-07-17T13:46:13;26.80;1.00
12700;DHT22;6414;49.570;6.060;2022-07-17T13:48:59;26.60;1.00
12700;DHT22;6414;49.570;6.060;2022-07-17T13:51:44;26.70;1.00
12700;DHT22;6414;49.570;6.060;2022-07-17T13:54:30;26.90;1.00
12700;DHT22;6414;49.570;6.060;2022-07-17T13:57:15;27.10;1.00
12700;DHT22;6414;49.570;6.060;2022-07-17T14:00:00;27.00;1.00
12700;DHT22;6414;49.570;6.060;2022-07-17T14:02:47;27.20;1.00
12700;DHT22;6414;49.570;6.060;2022-07-17T14:05:32;27.20;1.00
12700;DHT22;6414;49.570;6.060;2022-07-17T14:08:18;27.40;1.00
12700;DHT22;6414;49.570;6.060;2022-07-17T14:11:03;27.00;1.00
12700;DHT22;6414;49.570;6.060;2022-07-17T14:13:48;27.00;1.00
12700;DHT22;6414;49.570;6.060;2022-07-17T14:16:33;27.10;1.00
12700;DHT22;6414;49.570;6.060;2022-07-17T14:19:19;27.10;1.00
12700;DHT22;6414;49.570;6.060;2022-07-17T14:22:05;27.10;1.00
12700;DHT22;6414;49.570;6.060;2022-07-17T14:24:50;27.30;1.00
12700;DHT22;6414;49.570;6.060;2022-07-17T14:27:35;27.10;1.00
12700;DHT22;6414;49.570;6.060;2022-07-17T14:30:21;27.00;1.00
12700;DHT22;6414;49.570;6.060;2022-07-17T14:33:06;27.10;1.00
12700;DHT22;6414;49.570;6.060;2022-07-17T14:35:52;27.30;1.00
12700;DHT22;6414;49.570;6.060;2022-07-17T14:38:37;27.70;1.00
12700;DHT22;6414;49.570;6.060;2022-07-17T14:41:22;27.10;1.00
12700;DHT22;6414;49.570;6.060;2022-07-17T14:44:08;27.30;1.00
12700;DHT22;6414;49.570;6.060;2022-07-17T14:46:53;27.00;1.00
12700;DHT22;6414;49.570;6.060;2022-07-17T14:49:39;27.10;1.00
12700;DHT22;6414;49.570;6.060;2022-07-17T14:52:25;27.40;1.00
12700;DHT22;6414;49.570;6.060;2022-07-17T14:55:10;27.40;1.00
12700;DHT22;6414;49.570;6.060;2022-07-17T14:57:56;27.10;1.00
12700;DHT22;6414;49.570;6.060;2022-07-17T15:00:42;27.30;1.00
12700;DHT22;6414;49.570;6.060;2022-07-17T15:03:27;27.20;1.00
12700;DHT22;6414;49.570;6.060;2022-07-17T15:06:12;27.40;1.00
12700;DHT22;6414;49.570;6.060;2022-07-17T15:08:58;27.60;1.00
12700;DHT22;6414;49.570;6.060;2022-07-17T15:11:43;27.60;1.00
12700;DHT22;6414;49.570;6.060;2022-07-17T15:14:28;27.60;1.00
12700;DHT22;6414;49.570;6.060;2022-07-17T15:17:14;27.30;1.00
12700;DHT22;6414;49.570;6.060;2022-07-17T15:20:00;27.50;1.00
12700;DHT22;6414;49.570;6.060;2022-07-17T15:22:45;27.50;1.00
12700;DHT22;6414;49.570;6.060;2022-07-17T15:25:30;27.60;1.00
12700;DHT22;6414;49.570;6.060;2022-07-17T15:28:16;27.60;1.00
12700;DHT22;6414;49.570;6.060;2022-07-17T15:31:01;27.40;1.00
12700;DHT22;6414;49.570;6.060;2022-07-17T15:33:46;27.20;1.00
12700;DHT22;6414;49.570;6.060;2022-07-17T15:36:31;27.00;1.00
12700;DHT22;6414;49.570;6.060;2022-07-17T15:39:16;27.00;1.00
12700;DHT22;6414;49.570;6.060;2022-07-17T15:42:02;27.40;1.00
12700;DHT22;6414;49.570;6.060;2022-07-17T15:44:47;27.40;1.00
12700;DHT22;6414;49.570;6.060;2022-07-17T15:47:33;27.40;1.00
12700;DHT22;6414;49.570;6.060;2022-07-17T15:50:19;27.40;1.00
12700;DHT22;6414;49.570;6.060;2022-07-17T15:53:04;27.40;1.00
12700;DHT22;6414;49.570;6.060;2022-07-17T15:55:50;27.30;1.00
12700;DHT22;6414;49.570;6.060;2022-07-17T15:58:36;27.30;1.00
12700;DHT22;6414;49.570;6.060;2022-07-17T16:01:21;27.30;1.00
12700;DHT22;6414;49.570;6.060;2022-07-17T16:04:06;27.40;1.00
12700;DHT22;6414;49.570;6.060;2022-07-17T16:06:51;27.50;1.00
12700;DHT22;6414;49.570;6.060;2022-07-17T16:09:37;27.50;1.00
12700;DHT22;6414;49.570;6.060;2022-07-17T16:12:23;27.50;1.00
12700;DHT22;6414;49.570;6.060;2022-07-17T16:15:08;27.50;1.00
12700;DHT22;6414;49.570;6.060;2022-07-17T16:17:54;27.40;1.00
12700;DHT22;6414;49.570;6.060;2022-07-17T16:20:39;27.60;1.00
12700;DHT22;6414;49.570;6.060;2022-07-17T16:23:25;27.20;1.00
12700;DHT22;6414;49.570;6.060;2022-07-17T16:26:11;27.10;1.00
12700;DHT22;6414;49.570;6.060;2022-07-17T16:28:59;27.10;1.00
12700;DHT22;6414;49.570;6.060;2022-07-17T16:31:45;27.20;1.00
12700;DHT22;6414;49.570;6.060;2022-07-17T16:34:30;27.20;1.00
12700;DHT22;6414;49.570;6.060;2022-07-17T16:37:16;27.10;1.00
12700;DHT22;6414;49.570;6.060;2022-07-17T16:40:04;27.30;1.00
12700;DHT22;6414;49.570;6.060;2022-07-17T16:42:49;27.30;1.00
12700;DHT22;6414;49.570;6.060;2022-07-17T16:45:35;27.20;1.00
12700;DHT22;6414;49.570;6.060;2022-07-17T16:48:21;27.40;1.00
12700;DHT22;6414;49.570;6.060;2022-07-17T16:51:06;27.40;1.00
12700;DHT22;6414;49.570;6.060;2022-07-17T16:53:52;27.30;1.00
12700;DHT22;6414;49.570;6.060;2022-07-17T16:56:37;27.40;1.00
12700;DHT22;6414;49.570;6.060;2022-07-17T16:59:23;27.40;1.00
12700;DHT22;6414;49.570;6.060;2022-07-17T17:02:08;27.30;1.00
12700;DHT22;6414;49.570;6.060;2022-07-17T17:04:54;27.20;1.00
12700;DHT22;6414;49.570;6.060;2022-07-17T17:07:40;27.20;1.00
12700;DHT22;6414;49.570;6.060;2022-07-17T17:10:25;27.10;1.00
12700;DHT22;6414;49.570;6.060;2022-07-17T17:13:10;27.00;1.00
12700;DHT22;6414;49.570;6.060;2022-07-17T17:15:56;26.90;1.00
12700;DHT22;6414;49.570;6.060;2022-07-17T17:18:42;27.20;1.00
12700;DHT22;6414;49.570;6.060;2022-07-17T17:21:29;27.30;1.00
12700;DHT22;6414;49.570;6.060;2022-07-17T17:24:15;27.20;1.00
12700;DHT22;6414;49.570;6.060;2022-07-17T17:27:01;27.10;1.00
12700;DHT22;6414;49.570;6.060;2022-07-17T17:29:46;27.10;1.00
12700;DHT22;6414;49.570;6.060;2022-07-17T17:32:31;27.10;1.00
12700;DHT22;6414;49.570;6.060;2022-07-17T17:35:17;27.10;1.00
12700;DHT22;6414;49.570;6.060;2022-07-17T17:38:02;27.00;1.00
12700;DHT22;6414;49.570;6.060;2022-07-17T17:40:48;27.10;1.00
12700;DHT22;6414;49.570;6.060;2022-07-17T17:43:35;27.10;1.00
12700;DHT22;6414;49.570;6.060;2022-07-17T17:46:20;27.10;1.00
12700;DHT22;6414;49.570;6.060;2022-07-17T17:49:05;27.10;1.00
12700;DHT22;6414;49.570;6.060;2022-07-17T17:51:51;27.10;1.00
12700;DHT22;6414;49.570;6.060;2022-07-17T17:54:36;27.00;1.00